Ceredo, WV

12:42 PM EDT on April 18, 2015 (GMT -0400)
Tri-State / Ferguson | | Change Station
CLOSE
Current Station
Airport
Location: Huntington,
Elevation: 837 ft
Nearby Weather Stations

Elev 837 ft 38.37 °N, 82.56 °W | Updated 51 minutes ago

Partly Cloudy
Partly Cloudy
74 °F
Feels Like 74 °F
N
7
Wind Variable Wind from East

Today
High -- | Low -- °F
--% Chance of Precip.
Yesterday
High -- | Low -- °F
Precip. -- in
6:50 AM 8:09 PM
Waning Crescent, 0% visible
Pressure 30.01 in
Visibility 10.0 miles
Clouds Clear
Dew Point 50 °F
Humidity 43%
Rainfall 0.00 in
Snow Depth Not available.
UV 9 out of 12
Pollen 10.80 out of 12
Air Quality Not available.
Flu Activity Sporadic
METAR KHTS 181551Z 08006KT 10SM CLR 23/10 A3003 RMK AO2 SLP163 T02330100

More Conditions Fewer Conditions

Pressure 30.01 in
Visibility 10.0 miles
Clouds Clear
Dew Point 50 °F
Humidity 43%
Rainfall 0.00 in
Snow Depth Not available.
UV 9 out of 12
Pollen 10.80 out of 12
Air Quality Not available.
Flu Activity Sporadic
METAR KHTS 181551Z 08006KT 10SM CLR 23/10 A3003 RMK AO2 SLP163 T02330100

More Conditions Fewer Conditions

10-Day Weather Forecast

Almanac

Astronomy

Apr. 18, 2015 Rise Set
Actual Time
Civil Twilight
Nautical Twilight
Astronomical Twilight
Moon
Length of Visible Light
Length of Day
Tomorrow will be .
, % of the Moon is Illuminated

Today's Extremes

State Highs State Lows

Community

WunderPhotos

Upload Photos

1,814,457 photos uploaded!

WunderBlogs® & News

Nearby

Air Quality

  Air Quality AQ Index Pollutant
Not available.

Snow Depth

Station Depth Elevation

Earthquake Activity

City Distance Mag. Time & Date
Minimum magnitude displayed is 2.5.

Coastal Water Temperatures

Place Temperature

Stations

Nearby Weather Stations

Station Location Temp. Windchill Dew Point Humidity Wind Precip. Elev Updated Type